Stead, Nevada
Current Conditions -  °F | °C
As of 3:55 PM on Sunday 21 Dec 2014 (Local Time) from KRTS Reporting Station
Overcast Overcast  
Wind Chill: 54°   Ceiling: 3400
Heat Index: 54°   Visibility: 10mi
Dew Point: 39°   Wind: 6mph
Humidity: 58%   Direction: 340°NNW
Pressure: 30.24"   Gusts: NA
Location:  39.7378°N, 119.889°W
Report Text: KRTS 212355Z AUTO 34005KT 10SM BKN034 OVC043 12/04 A3024 RMK AO2
Loading
Personal Weather Stations






























Interactive Weather Map New forecast layout! Learn more

10-Day Weather Forecast

Advertisements
Track Severe Weather on mobile